EKHS weather

CLOSED Hadsund Airfield
Hadsund, North Jutland, Denmark

Public forecast

Using degrees Celsius for public forecast. Weather courtesy of forecast.io.

METAR (pilot weather report)

Closest report is Aalborg Airport, 23.7 nm (44.0 km) NNW. Retrieved 2019/05/26 10:20 UTC (11 minutes ago):

EKYT 261020Z AUTO 27015KT 250V310 9999 SCT029/// 12/05 Q1003

TAF (pilot weather forecast)

Closest forecast is Aalborg Airport, 23.7 nm (44.0 km) NNW. Retrieved 2019/05/26 09:31 UTC (1 hour ago):

TAF EKYT 260823Z 2609/2709 27015KT 9999 FEW015 BKN030 TEMPO 2609/2615 28018G28KT BECMG 2620/2623 26005KT TEMPO 2700/2709 5000 -RA